createdAt,value
2018-05-18T00:01:15.196Z,65.10
2018-05-18T00:04:18.633Z,65.40
2018-05-18T00:07:21.309Z,65.30
2018-05-18T00:10:24.110Z,65.80
2018-05-18T00:13:26.795Z,66.00
2018-05-18T00:16:29.511Z,66.30
2018-05-18T00:19:32.254Z,66.30
2018-05-18T00:22:35.293Z,66.60
2018-05-18T00:25:38.090Z,66.60
2018-05-18T00:28:40.797Z,66.50
2018-05-18T00:31:44.521Z,66.50
2018-05-18T00:34:47.205Z,66.40
2018-05-18T00:37:50.686Z,66.40
2018-05-18T00:40:54.076Z,66.50
2018-05-18T00:43:58.003Z,66.40
2018-05-18T00:47:01.507Z,66.40
2018-05-18T00:50:04.878Z,66.40
2018-05-18T00:53:07.873Z,66.50
2018-05-18T00:56:10.513Z,66.50
2018-05-18T00:59:13.339Z,66.70
2018-05-18T01:02:15.907Z,66.30
2018-05-18T01:05:18.611Z,66.30
2018-05-18T01:08:21.382Z,65.80
2018-05-18T01:11:24.017Z,65.80
2018-05-18T01:14:26.713Z,65.60
2018-05-18T01:17:30.439Z,65.80
2018-05-18T01:20:33.084Z,65.90
2018-05-18T01:23:35.650Z,65.20
2018-05-18T01:26:39.137Z,65.80
2018-05-18T01:29:42.068Z,65.70
2018-05-18T01:32:45.435Z,65.50
2018-05-18T01:35:48.074Z,65.40
2018-05-18T01:38:50.773Z,65.50
2018-05-18T01:41:53.395Z,65.50
2018-05-18T01:44:55.958Z,65.60
2018-05-18T01:47:58.555Z,65.70
2018-05-18T01:51:01.142Z,66.40
2018-05-18T01:54:04.552Z,65.40
2018-05-18T01:57:07.337Z,65.40
2018-05-18T02:00:10.712Z,65.60
2018-05-18T02:03:13.296Z,65.60
2018-05-18T02:06:16.229Z,65.60
2018-05-18T02:09:18.989Z,66.00
2018-05-18T02:12:21.591Z,66.00
2018-05-18T02:15:24.205Z,66.10
2018-05-18T02:18:26.769Z,66.10
2018-05-18T02:21:29.352Z,66.20
2018-05-18T02:24:31.941Z,66.40
2018-05-18T02:27:34.515Z,66.20
2018-05-18T02:30:37.129Z,66.30
2018-05-18T02:33:39.729Z,66.30
2018-05-18T02:36:42.399Z,66.40
2018-05-18T02:39:44.992Z,66.50
2018-05-18T02:42:47.617Z,66.50
2018-05-18T02:45:50.224Z,66.50
2018-05-18T02:48:52.809Z,66.40
2018-05-18T02:51:55.387Z,66.20
2018-05-18T02:54:57.983Z,66.20
2018-05-18T02:58:00.564Z,65.60
2018-05-18T03:01:03.220Z,65.90
2018-05-18T03:04:05.807Z,65.60
2018-05-18T03:07:08.393Z,65.40
2018-05-18T03:10:11.746Z,65.80
2018-05-18T03:13:15.128Z,65.80
2018-05-18T03:16:17.716Z,65.70
2018-05-18T03:19:21.196Z,66.30
2018-05-18T03:22:23.737Z,66.30
2018-05-18T03:25:26.372Z,66.60
2018-05-18T03:28:28.961Z,66.70
2018-05-18T03:31:31.587Z,66.70
2018-05-18T03:34:34.151Z,66.50
2018-05-18T03:37:36.763Z,66.50
2018-05-18T03:40:39.331Z,66.50
2018-05-18T03:43:41.908Z,66.50
2018-05-18T03:46:44.485Z,66.30
2018-05-18T03:49:48.285Z,66.40
2018-05-18T03:52:50.964Z,66.50
2018-05-18T03:55:54.354Z,66.20
2018-05-18T03:58:56.930Z,66.20
2018-05-18T04:02:11.367Z,66.00
2018-05-18T04:05:25.799Z,65.90
2018-05-18T04:08:52.231Z,65.50
2018-05-18T04:11:54.830Z,65.40
2018-05-18T04:14:57.444Z,65.30
2018-05-18T04:18:00.068Z,65.10
2018-05-18T04:21:02.749Z,64.90
2018-05-18T04:24:05.445Z,64.20
2018-05-18T04:27:08.029Z,64.30
2018-05-18T04:30:10.747Z,63.80
2018-05-18T04:33:14.090Z,62.80
2018-05-18T04:36:16.768Z,62.80
2018-05-18T04:39:19.386Z,62.20
2018-05-18T04:42:22.035Z,62.00
2018-05-18T04:45:24.663Z,61.80
2018-05-18T04:48:27.260Z,61.00
2018-05-18T04:51:30.203Z,60.80
2018-05-18T04:54:32.767Z,59.90
2018-05-18T04:57:36.152Z,59.80
2018-05-18T05:00:38.752Z,59.80
2018-05-18T05:03:42.086Z,59.40
2018-05-18T05:06:44.706Z,59.90
2018-05-18T05:09:47.297Z,59.40
2018-05-18T05:12:49.861Z,58.90
2018-05-18T05:15:52.454Z,58.90
2018-05-18T05:18:55.054Z,58.50
2018-05-18T05:21:58.484Z,58.20
2018-05-18T05:25:01.099Z,58.20
2018-05-18T05:28:03.765Z,57.80
2018-05-18T05:31:06.656Z,58.00
2018-05-18T05:34:09.330Z,57.90
2018-05-18T05:37:13.958Z,58.00
2018-05-18T05:40:17.546Z,57.20
2018-05-18T05:43:20.134Z,57.60
2018-05-18T05:46:23.016Z,56.70
2018-05-18T05:49:25.599Z,56.10
2018-05-18T05:52:28.336Z,55.70
2018-05-18T05:55:30.973Z,54.90
2018-05-18T05:58:34.414Z,54.10
2018-05-18T06:01:38.417Z,54.00
2018-05-18T06:04:41.038Z,52.90
2018-05-18T06:07:44.418Z,52.90
2018-05-18T06:10:47.973Z,52.90
2018-05-18T06:13:50.634Z,52.60
2018-05-18T06:16:54.091Z,52.20
2018-05-18T06:19:56.790Z,51.30
2018-05-18T06:22:59.511Z,51.50
2018-05-18T06:26:02.805Z,51.00
2018-05-18T06:29:05.398Z,51.50
2018-05-18T06:32:08.007Z,51.30
2018-05-18T06:35:10.729Z,51.20
2018-05-18T06:38:14.455Z,50.50
2018-05-18T06:41:17.935Z,50.20
2018-05-18T06:44:20.598Z,48.80
2018-05-18T06:47:23.201Z,48.00
2018-05-18T06:50:25.815Z,48.00
2018-05-18T06:53:29.187Z,46.00
2018-05-18T06:56:31.769Z,46.00
2018-05-18T06:59:34.429Z,45.50
2018-05-18T07:02:37.077Z,44.00
2018-05-18T07:05:39.903Z,43.90
2018-05-18T07:08:44.678Z,43.30
2018-05-18T07:11:47.313Z,42.00
2018-05-18T07:14:49.925Z,42.10
2018-05-18T07:17:53.300Z,39.30
2018-05-18T07:20:55.912Z,39.30
2018-05-18T07:23:58.697Z,37.20
2018-05-18T07:27:01.396Z,35.90
2018-05-18T07:30:05.120Z,33.00
2018-05-18T07:33:07.739Z,31.80
2018-05-18T07:36:10.373Z,30.20
2018-05-18T07:39:13.044Z,27.30
2018-05-18T07:42:16.498Z,24.80
2018-05-18T07:45:19.523Z,24.70
2018-05-18T07:48:22.144Z,23.50
2018-05-18T07:51:24.787Z,24.30
2018-05-18T07:54:27.399Z,25.90
2018-05-18T07:57:30.035Z,26.50
2018-05-18T08:00:32.695Z,26.30
2018-05-18T08:03:38.008Z,27.10
2018-05-18T08:06:41.366Z,28.10
2018-05-18T08:09:43.970Z,28.10
2018-05-18T08:12:46.568Z,28.70
2018-05-18T08:15:49.154Z,28.40
2018-05-18T08:18:52.552Z,29.40
2018-05-18T08:21:55.190Z,29.30
2018-05-18T08:24:57.808Z,29.50
2018-05-18T08:28:01.335Z,29.20
2018-05-18T08:31:07.863Z,29.10
2018-05-18T08:34:10.478Z,28.90
2018-05-18T08:37:13.122Z,28.50
2018-05-18T08:40:15.711Z,28.20
2018-05-18T08:43:19.095Z,28.40
2018-05-18T08:46:21.728Z,27.90
2018-05-18T08:49:25.082Z,27.90
2018-05-18T08:52:27.716Z,27.90
2018-05-18T08:55:31.157Z,28.60
2018-05-18T08:58:33.830Z,28.60
2018-05-18T09:01:36.619Z,29.10
2018-05-18T09:04:40.379Z,29.00
2018-05-18T09:07:43.807Z,29.40
2018-05-18T09:10:46.462Z,29.40
2018-05-18T09:13:49.061Z,29.80
2018-05-18T09:16:51.693Z,31.20
2018-05-18T09:19:58.171Z,31.50
2018-05-18T09:23:05.435Z,32.50
2018-05-18T09:26:08.101Z,32.40
2018-05-18T09:29:10.668Z,33.30
2018-05-18T09:32:13.251Z,33.80
2018-05-18T09:35:16.625Z,34.80
2018-05-18T09:38:19.206Z,34.70
2018-05-18T09:41:21.767Z,36.00
2018-05-18T09:44:24.366Z,36.60
2018-05-18T09:47:26.963Z,37.30
2018-05-18T09:50:31.827Z,37.70
2018-05-18T09:53:34.422Z,37.70
2018-05-18T09:56:36.984Z,38.20
2018-05-18T09:59:39.614Z,38.90
2018-05-18T10:02:42.178Z,38.40
2018-05-18T10:05:44.766Z,39.00
2018-05-18T10:08:47.349Z,38.90
2018-05-18T10:11:49.982Z,39.80
2018-05-18T10:14:52.719Z,40.40
2018-05-18T10:17:56.140Z,40.40
2018-05-18T10:20:58.767Z,40.60
2018-05-18T10:24:01.350Z,40.00
2018-05-18T10:27:03.928Z,38.40
2018-05-18T10:30:06.771Z,36.70
2018-05-18T10:33:10.183Z,35.40
2018-05-18T10:36:12.908Z,35.30
2018-05-18T10:39:15.513Z,34.40
2018-05-18T10:42:18.170Z,33.80
2018-05-18T10:45:20.792Z,34.10
2018-05-18T10:48:24.810Z,34.40
2018-05-18T10:51:27.675Z,34.70
2018-05-18T10:54:30.615Z,34.80
2018-05-18T10:57:33.193Z,35.50
2018-05-18T11:00:35.916Z,34.50
2018-05-18T11:03:38.548Z,34.50
2018-05-18T11:06:41.131Z,34.90
2018-05-18T11:09:44.677Z,36.00
2018-05-18T11:12:47.298Z,35.90
2018-05-18T11:15:49.899Z,35.90
2018-05-18T11:18:52.500Z,36.50
2018-05-18T11:21:55.100Z,36.60
2018-05-18T11:24:58.560Z,37.00
2018-05-18T11:28:01.230Z,36.90
2018-05-18T11:31:04.013Z,37.30
2018-05-18T11:34:06.707Z,37.30
2018-05-18T11:37:09.412Z,38.00
2018-05-18T11:40:11.999Z,38.70
2018-05-18T11:43:14.575Z,37.60
2018-05-18T11:46:17.170Z,38.40
2018-05-18T11:49:20.543Z,37.20
2018-05-18T11:52:23.175Z,37.20
2018-05-18T11:55:25.768Z,37.60
2018-05-18T11:58:28.404Z,37.70
2018-05-18T12:01:31.113Z,36.40
2018-05-18T12:04:33.767Z,36.20
2018-05-18T12:07:36.402Z,36.60
2018-05-18T12:10:39.047Z,35.40
2018-05-18T12:13:42.483Z,35.10
2018-05-18T12:16:45.063Z,35.00
2018-05-18T12:19:47.644Z,34.80
2018-05-18T12:22:50.268Z,34.80
2018-05-18T12:25:52.856Z,34.80
2018-05-18T12:28:55.716Z,34.50
2018-05-18T12:31:58.340Z,34.40
2018-05-18T12:35:00.964Z,33.40
2018-05-18T12:38:03.649Z,32.80
2018-05-18T12:41:06.316Z,32.00
2018-05-18T12:44:08.928Z,31.60
2018-05-18T12:47:11.555Z,31.20
2018-05-18T12:50:14.170Z,31.00
2018-05-18T12:53:16.945Z,31.70
2018-05-18T12:56:20.662Z,31.30
2018-05-18T12:59:24.238Z,31.10
2018-05-18T13:02:26.782Z,31.10
2018-05-18T13:05:29.399Z,31.00
2018-05-18T13:08:32.770Z,29.90
2018-05-18T13:11:35.348Z,29.90
2018-05-18T13:14:37.942Z,29.90
2018-05-18T13:17:40.531Z,29.20
2018-05-18T13:20:43.131Z,29.10
2018-05-18T13:23:46.482Z,29.30
2018-05-18T13:26:49.154Z,28.80
2018-05-18T13:29:51.881Z,28.60
2018-05-18T13:32:54.515Z,28.90
2018-05-18T13:35:57.097Z,29.20
2018-05-18T13:38:59.785Z,29.20
2018-05-18T13:42:03.207Z,29.20
2018-05-18T13:45:05.983Z,29.20
2018-05-18T13:48:08.527Z,29.50
2018-05-18T13:51:11.160Z,30.30
2018-05-18T13:54:13.781Z,30.20
2018-05-18T13:57:16.412Z,30.30
2018-05-18T14:00:19.025Z,30.70
2018-05-18T14:03:22.406Z,31.20
2018-05-18T14:06:26.048Z,30.50
2018-05-18T14:09:28.676Z,30.70
2018-05-18T14:12:31.273Z,30.70
2018-05-18T14:15:33.862Z,31.00
2018-05-18T14:18:36.479Z,32.20
2018-05-18T14:21:39.078Z,32.20
2018-05-18T14:24:41.704Z,32.60
2018-05-18T14:27:44.281Z,33.80
2018-05-18T14:30:47.965Z,35.20
2018-05-18T14:33:50.557Z,36.80
2018-05-18T14:36:53.139Z,37.50
2018-05-18T14:39:56.177Z,35.40
2018-05-18T14:42:59.659Z,45.40
2018-05-18T14:46:02.325Z,45.40
2018-05-18T14:49:05.214Z,47.70
2018-05-18T14:52:08.080Z,42.90
2018-05-18T14:55:10.691Z,46.60
2018-05-18T14:58:13.367Z,48.20
2018-05-18T15:01:17.853Z,50.50
2018-05-18T15:04:21.261Z,51.10
2018-05-18T15:07:25.456Z,53.50
2018-05-18T15:10:28.017Z,53.40
2018-05-18T15:13:30.754Z,53.70
2018-05-18T15:16:37.883Z,54.00
2018-05-18T15:19:40.626Z,54.00
2018-05-18T15:22:43.999Z,55.40
2018-05-18T15:25:46.575Z,55.40
2018-05-18T15:28:49.194Z,56.10
2018-05-18T15:31:51.818Z,54.80
2018-05-18T15:34:54.425Z,55.90
2018-05-18T15:37:57.101Z,54.90
2018-05-18T15:40:59.736Z,55.40
2018-05-18T15:44:02.408Z,55.90
2018-05-18T15:47:06.729Z,55.20
2018-05-18T15:50:09.338Z,55.10
2018-05-18T15:53:11.947Z,55.10
2018-05-18T15:56:14.520Z,54.50
2018-05-18T15:59:17.138Z,54.60
2018-05-18T16:02:19.727Z,55.30
2018-05-18T16:05:22.345Z,55.10
2018-05-18T16:08:25.194Z,54.80
2018-05-18T16:11:28.770Z,52.80
2018-05-18T16:14:31.376Z,52.70
2018-05-18T16:17:34.772Z,50.90
2018-05-18T16:20:37.374Z,49.40
2018-05-18T16:23:40.296Z,49.80
2018-05-18T16:26:43.010Z,50.60
2018-05-18T16:29:45.603Z,51.70
2018-05-18T16:32:48.334Z,50.90
2018-05-18T16:35:50.899Z,50.00
2018-05-18T16:38:53.492Z,51.30
2018-05-18T16:41:56.116Z,51.50
2018-05-18T16:44:58.750Z,52.10
2018-05-18T16:48:02.157Z,53.80
2018-05-18T16:51:05.820Z,53.70
2018-05-18T16:54:09.037Z,53.70
2018-05-18T16:57:11.645Z,54.40
2018-05-18T17:00:14.348Z,55.20
2018-05-18T17:03:17.021Z,55.20
2018-05-18T17:06:19.628Z,55.00
2018-05-18T17:09:22.224Z,54.50
2018-05-18T17:12:24.874Z,55.10
2018-05-18T17:15:27.560Z,55.40
2018-05-18T17:18:30.159Z,54.80
2018-05-18T17:21:32.735Z,55.30
2018-05-18T17:24:36.159Z,56.90
2018-05-18T17:27:38.807Z,56.90
2018-05-18T17:30:41.396Z,57.30
2018-05-18T17:33:44.007Z,58.10
2018-05-18T17:36:46.615Z,58.10
2018-05-18T17:39:49.321Z,58.30
2018-05-18T17:42:51.955Z,57.40
2018-05-18T17:45:54.876Z,57.50
2018-05-18T17:48:58.485Z,58.00
2018-05-18T17:52:01.918Z,58.00
2018-05-18T17:55:04.641Z,59.60
2018-05-18T17:58:08.146Z,60.80
2018-05-18T18:01:10.773Z,61.10
2018-05-18T18:04:13.395Z,60.40
2018-05-18T18:07:16.012Z,61.30
2018-05-18T18:10:18.722Z,61.90
2018-05-18T18:13:21.405Z,63.00
2018-05-18T18:16:23.999Z,64.50
2018-05-18T18:19:26.672Z,64.00
2018-05-18T18:22:29.345Z,63.60
2018-05-18T18:25:32.437Z,65.50
2018-05-18T18:28:35.846Z,65.80
2018-05-18T18:31:38.409Z,65.10
2018-05-18T18:34:42.370Z,66.80
2018-05-18T18:37:44.981Z,66.70
2018-05-18T18:40:47.640Z,65.70
2018-05-18T18:43:50.501Z,65.40
2018-05-18T18:46:53.182Z,65.80
2018-05-18T18:49:56.006Z,66.60
2018-05-18T18:52:58.736Z,67.00
2018-05-18T18:56:01.368Z,67.40
2018-05-18T18:59:04.141Z,67.70
2018-05-18T19:02:07.432Z,67.80
2018-05-18T19:05:10.078Z,68.40
2018-05-18T19:08:12.695Z,68.30
2018-05-18T19:11:15.417Z,68.50
2018-05-18T19:14:18.403Z,68.70
2018-05-18T19:17:21.053Z,68.80
2018-05-18T19:20:23.656Z,68.80
2018-05-18T19:23:26.255Z,69.10
2018-05-18T19:26:28.903Z,69.30
2018-05-18T19:29:31.802Z,69.30
2018-05-18T19:32:34.402Z,69.10
2018-05-18T19:35:37.027Z,68.90
2018-05-18T19:38:39.676Z,68.70
2018-05-18T19:41:42.414Z,68.90
2018-05-18T19:44:45.364Z,68.90
2018-05-18T19:47:49.693Z,68.50
2018-05-18T19:50:52.307Z,68.50
2018-05-18T19:53:54.920Z,68.70
2018-05-18T19:56:57.503Z,68.20
2018-05-18T20:00:00.175Z,68.00
2018-05-18T20:03:02.944Z,68.10
2018-05-18T20:06:05.726Z,68.30
2018-05-18T20:09:09.163Z,68.50
2018-05-18T20:12:12.670Z,68.90
2018-05-18T20:15:15.263Z,69.00
2018-05-18T20:18:18.047Z,69.10
2018-05-18T20:21:21.539Z,69.20
2018-05-18T20:24:24.124Z,69.00
2018-05-18T20:27:26.746Z,69.20
2018-05-18T20:30:30.163Z,69.40
2018-05-18T20:33:32.817Z,68.60
2018-05-18T20:36:35.408Z,68.50
2018-05-18T20:39:38.579Z,68.60
2018-05-18T20:42:41.318Z,68.60
2018-05-18T20:45:43.972Z,68.80
2018-05-18T20:48:46.656Z,69.00
2018-05-18T20:51:50.114Z,69.10
2018-05-18T20:54:52.649Z,68.90
2018-05-18T20:57:56.006Z,68.90
2018-05-18T21:00:58.616Z,68.90
2018-05-18T21:04:01.538Z,69.50
2018-05-18T21:07:04.133Z,69.90
2018-05-18T21:10:07.011Z,69.30
2018-05-18T21:13:09.624Z,69.90
2018-05-18T21:16:12.259Z,70.00
2018-05-18T21:19:15.610Z,69.90
2018-05-18T21:22:18.258Z,69.90
2018-05-18T21:25:20.869Z,69.90
2018-05-18T21:28:23.491Z,69.90
2018-05-18T21:31:26.144Z,69.80
2018-05-18T21:34:29.652Z,69.80
2018-05-18T21:37:33.463Z,69.70
2018-05-18T21:40:36.039Z,69.70
2018-05-18T21:43:38.653Z,69.70
2018-05-18T21:46:41.265Z,69.70
2018-05-18T21:49:43.850Z,69.00
2018-05-18T21:52:46.645Z,68.80
2018-05-18T21:55:49.436Z,68.80
2018-05-18T21:58:52.103Z,68.60
2018-05-18T22:01:54.699Z,68.90
2018-05-18T22:04:57.467Z,69.20
2018-05-18T22:08:00.156Z,69.00
2018-05-18T22:11:02.758Z,69.00
2018-05-18T22:14:05.393Z,69.20
2018-05-18T22:17:07.962Z,68.70
2018-05-18T22:20:10.600Z,68.50
2018-05-18T22:23:13.263Z,68.50
2018-05-18T22:26:15.898Z,68.30
2018-05-18T22:29:18.624Z,68.60
2018-05-18T22:32:22.011Z,68.50
2018-05-18T22:35:24.615Z,68.40
2018-05-18T22:38:27.253Z,68.50
2018-05-18T22:41:31.637Z,68.30
2018-05-18T22:44:34.247Z,68.20
2018-05-18T22:47:36.846Z,68.90
2018-05-18T22:50:39.487Z,68.90
2018-05-18T22:53:42.099Z,68.10
2018-05-18T22:56:44.699Z,68.20
2018-05-18T22:59:47.347Z,68.20
2018-05-18T23:02:50.214Z,68.80
2018-05-18T23:05:52.806Z,69.70
2018-05-18T23:08:55.449Z,69.70
2018-05-18T23:11:58.038Z,69.70
2018-05-18T23:15:01.406Z,70.50
2018-05-18T23:18:04.056Z,70.40
2018-05-18T23:21:06.658Z,70.80
2018-05-18T23:24:09.244Z,71.10
2018-05-18T23:27:11.833Z,71.40
2018-05-18T23:30:14.563Z,71.30
2018-05-18T23:33:17.326Z,71.30
2018-05-18T23:36:19.909Z,71.30
2018-05-18T23:39:23.246Z,70.90
2018-05-18T23:42:25.859Z,70.90
2018-05-18T23:45:28.432Z,71.10
2018-05-18T23:48:31.059Z,70.50
2018-05-18T23:51:33.760Z,70.50
2018-05-18T23:54:36.652Z,70.40
2018-05-18T23:57:39.255Z,70.30
